Time;durP1;ratioP1;P1;durP2;ratioP2;P2;SDS_P1;SDS_P2;PMS_P1;PMS_P2;Temp;Humidity;BMP_temperature;BMP_pressure;BME280_temperature;BME280_humidity;BME280_pressure;Samples;Min_cycle;Max_cycle;Signal;HPM_P1;HPM_P2
2024/01/15 00:01:44;;;;;;;9.05;2.20;;;3.30;99.90;;;;;;5092902;28;20485;-65
2024/01/15 00:04:10;;;;;;;12.05;3.13;;;3.30;99.90;;;;;;5092152;28;20489;-65
2024/01/15 00:06:35;;;;;;;14.70;2.22;;;3.30;99.90;;;;;;5093280;28;20035;-65
2024/01/15 00:09:01;;;;;;;9.65;2.80;;;3.40;99.90;;;;;;5076287;28;20040;-65
2024/01/15 00:11:27;;;;;;;10.20;3.00;;;3.40;99.90;;;;;;5091985;28;20077;-65
2024/01/15 00:13:53;;;;;;;12.20;3.60;;;3.40;99.90;;;;;;5092858;28;20043;-65
2024/01/15 00:16:21;;;;;;;7.60;2.53;;;3.50;99.90;;;;;;5092513;28;20054;-66
2024/01/15 00:18:47;;;;;;;15.30;3.45;;;3.50;99.90;;;;;;5092500;28;20552;-66
2024/01/15 00:21:13;;;;;;;20.00;3.60;;;3.60;99.90;;;;;;5093468;28;20111;-66
2024/01/15 00:23:44;;;;;;;19.00;6.45;;;3.60;99.90;;;;;;5092474;28;20036;-66
2024/01/15 00:26:10;;;;;;;16.17;6.88;;;3.60;99.90;;;;;;5092566;28;20048;-66
2024/01/15 00:28:36;;;;;;;11.00;4.38;;;3.70;99.90;;;;;;5093791;28;20042;-66
2024/01/15 00:31:02;;;;;;;9.35;2.30;;;3.80;99.90;;;;;;5092022;28;20484;-66
2024/01/15 00:33:28;;;;;;;7.00;2.47;;;3.80;99.90;;;;;;5092195;28;20074;-65
2024/01/15 00:35:53;;;;;;;5.63;1.60;;;3.60;99.90;;;;;;5075378;28;20381;-65
2024/01/15 00:38:20;;;;;;;6.90;1.80;;;3.40;99.90;;;;;;5091591;28;20032;-65
2024/01/15 00:40:45;;;;;;;11.00;1.90;;;3.30;99.90;;;;;;5092602;28;20052;-66
2024/01/15 00:43:11;;;;;;;5.78;2.55;;;3.30;99.90;;;;;;5093234;28;20370;-65
2024/01/15 00:45:37;;;;;;;11.73;1.92;;;3.20;99.90;;;;;;5091217;28;20464;-65
2024/01/15 00:48:03;;;;;;;6.55;1.65;;;3.10;99.90;;;;;;5109210;28;20075;-65
2024/01/15 00:50:29;;;;;;;10.52;1.92;;;3.10;99.90;;;;;;5091630;28;20519;-65
2024/01/15 00:52:55;;;;;;;11.38;1.88;;;3.20;99.90;;;;;;5091459;28;20044;-65
2024/01/15 00:55:21;;;;;;;5.47;1.38;;;3.30;99.90;;;;;;5074416;28;20056;-65
2024/01/15 00:57:46;;;;;;;9.68;1.90;;;3.20;99.90;;;;;;5091808;28;20052;-65
2024/01/15 01:00:12;;;;;;;13.68;2.08;;;3.30;99.90;;;;;;5090980;28;20081;-65
2024/01/15 01:02:38;;;;;;;10.63;2.63;;;3.20;99.90;;;;;;5091717;28;20040;-65
2024/01/15 01:05:04;;;;;;;10.63;2.67;;;3.20;99.90;;;;;;5092051;28;20046;-65
2024/01/15 01:07:30;;;;;;;9.82;1.80;;;3.10;99.90;;;;;;5090989;28;20087;-65
2024/01/15 01:09:55;;;;;;;4.50;1.30;;;3.00;99.90;;;;;;5091647;28;20055;-65
2024/01/15 01:12:21;;;;;;;5.43;1.50;;;3.20;99.90;;;;;;5092532;28;20421;-66
2024/01/15 01:14:47;;;;;;;12.90;1.20;;;3.20;99.90;;;;;;5090987;28;20043;-65
2024/01/15 01:17:12;;;;;;;6.05;1.25;;;3.40;99.90;;;;;;5091682;28;20473;-65
2024/01/15 01:19:38;;;;;;;2.75;0.77;;;3.30;99.90;;;;;;5091560;28;20038;-65
2024/01/15 01:22:04;;;;;;;2.95;0.70;;;3.20;99.90;;;;;;5091001;28;20043;-65
2024/01/15 01:24:29;;;;;;;3.83;0.88;;;3.20;99.90;;;;;;5091235;28;20047;-65
2024/01/15 01:26:55;;;;;;;5.95;0.88;;;3.30;99.90;;;;;;5091882;28;20044;-65
2024/01/15 01:29:21;;;;;;;7.32;1.45;;;3.20;99.90;;;;;;5090754;28;20078;-65
2024/01/15 01:31:47;;;;;;;8.50;2.30;;;3.00;99.90;;;;;;5091602;28;20393;-65
2024/01/15 01:34:16;;;;;;;4.97;1.25;;;2.90;99.90;;;;;;5089632;28;20052;-65
2024/01/15 01:36:42;;;;;;;7.82;2.10;;;2.80;99.90;;;;;;5091197;28;20090;-66
2024/01/15 01:39:09;;;;;;;8.65;1.65;;;2.80;99.90;;;;;;5090962;28;20089;-66
2024/01/15 01:41:34;;;;;;;9.23;1.75;;;2.70;99.90;;;;;;5090140;28;20385;-66
2024/01/15 01:44:00;;;;;;;9.35;1.80;;;2.60;99.90;;;;;;5092797;28;20032;-66
2024/01/15 01:46:27;;;;;;;10.27;3.40;;;2.60;99.90;;;;;;5074086;28;20562;-65
2024/01/15 01:48:55;;;;;;;7.28;2.08;;;2.50;99.90;;;;;;5107553;28;20047;-65
2024/01/15 01:51:22;;;;;;;6.65;2.30;;;2.50;99.90;;;;;;5091050;28;20039;-65
2024/01/15 01:53:48;;;;;;;8.20;2.20;;;2.50;99.90;;;;;;5092269;28;20043;-65
2024/01/15 01:56:15;;;;;;;14.70;2.67;;;2.50;99.90;;;;;;5089949;28;20055;-65
2024/01/15 01:58:40;;;;;;;13.55;2.63;;;2.50;99.90;;;;;;5090837;28;20036;-65
2024/01/15 02:01:07;;;;;;;11.70;3.03;;;2.50;99.90;;;;;;5091172;28;20043;-66
2024/01/15 02:03:33;;;;;;;14.68;2.53;;;2.50;99.90;;;;;;5090234;28;20109;-65
2024/01/15 02:06:00;;;;;;;14.43;3.17;;;2.60;99.90;;;;;;5090662;28;20048;-66
2024/01/15 02:08:26;;;;;;;10.57;2.88;;;2.80;99.90;;;;;;5090349;28;20032;-65
2024/01/15 02:10:52;;;;;;;16.80;2.83;;;3.10;99.90;;;;;;5089463;28;20558;-66
2024/01/15 02:13:19;;;;;;;7.40;1.40;;;3.30;99.90;;;;;;5090725;28;20036;-65
2024/01/15 02:15:44;;;;;;;10.38;2.00;;;3.40;99.90;;;;;;5090695;28;20075;-65
2024/01/15 02:18:10;;;;;;;6.97;1.95;;;3.40;99.90;;;;;;5089887;28;20516;-65
2024/01/15 02:20:36;;;;;;;8.77;2.17;;;3.40;99.90;;;;;;5107671;28;20040;-65
2024/01/15 02:23:22;;;;;;;8.68;1.45;;;3.40;99.90;;;;;;5072401;28;20048;-65
2024/01/15 02:25:48;;;;;;;7.40;1.90;;;3.40;99.90;;;;;;5069953;28;20083;-65
2024/01/15 02:28:16;;;;;;;8.80;1.80;;;3.30;99.90;;;;;;5070817;28;20072;-65
2024/01/15 02:30:42;;;;;;;6.15;1.48;;;3.30;99.90;;;;;;5071096;28;20451;-65
2024/01/15 02:33:09;;;;;;;7.57;1.60;;;3.30;99.90;;;;;;5071694;28;20394;-65
2024/01/15 02:35:38;;;;;;;9.68;1.90;;;3.30;99.90;;;;;;5071636;28;20048;-65
2024/01/15 02:38:07;;;;;;;12.35;2.03;;;3.30;99.90;;;;;;5072563;28;20123;-66
2024/01/15 02:40:33;;;;;;;4.80;1.30;;;3.20;99.90;;;;;;5090287;28;20036;-66
2024/01/15 02:42:59;;;;;;;12.93;3.45;;;3.20;99.90;;;;;;5090564;28;20085;-66
2024/01/15 02:45:25;;;;;;;10.18;2.95;;;3.20;99.90;;;;;;5092641;28;20439;-65
2024/01/15 02:47:50;;;;;;;6.95;1.58;;;3.20;99.90;;;;;;5094565;28;20036;-65
2024/01/15 02:50:16;;;;;;;17.73;3.13;;;3.20;99.90;;;;;;5094667;28;20044;-65
2024/01/15 02:52:42;;;;;;;12.25;2.75;;;3.20;99.90;;;;;;5094566;28;20032;-65
2024/01/15 02:55:08;;;;;;;9.95;3.33;;;3.20;99.90;;;;;;5111113;28;20064;-65
2024/01/15 02:57:34;;;;;;;15.88;2.97;;;3.20;99.90;;;;;;5094287;28;20055;-65
2024/01/15 02:59:59;;;;;;;16.27;2.97;;;3.20;99.90;;;;;;5093606;28;20040;-66
2024/01/15 03:02:43;;;;;;;18.92;2.85;;;3.20;99.90;;;;;;5093835;28;20032;-66
2024/01/15 03:05:09;;;;;;;10.02;2.33;;;3.20;99.90;;;;;;5094150;28;20162;-66
2024/01/15 03:07:38;;;;;;;9.88;2.45;;;3.30;99.90;;;;;;5094656;28;20051;-66
2024/01/15 03:10:06;;;;;;;12.20;2.70;;;3.40;99.90;;;;;;5094443;28;20044;-65
2024/01/15 03:12:31;;;;;;;18.58;3.92;;;3.50;99.90;;;;;;5093369;28;20421;-65
2024/01/15 03:14:57;;;;;;;18.92;2.90;;;3.50;99.90;;;;;;5095623;28;20036;-65
2024/01/15 03:17:23;;;;;;;17.35;4.10;;;3.50;99.90;;;;;;5093932;28;20055;-65
2024/01/15 03:19:49;;;;;;;13.88;2.85;;;3.40;99.90;;;;;;5076455;28;20042;-65
2024/01/15 03:22:16;;;;;;;11.95;2.30;;;3.40;99.90;;;;;;5094013;28;20109;-66
2024/01/15 03:24:41;;;;;;;10.82;1.30;;;3.50;99.90;;;;;;5093620;28;20040;-65
2024/01/15 03:27:07;;;;;;;3.10;0.98;;;3.50;99.90;;;;;;5093060;28;20143;-65
2024/01/15 03:29:33;;;;;;;6.25;1.48;;;3.60;99.90;;;;;;5093769;28;20075;-66
2024/01/15 03:31:58;;;;;;;5.25;1.45;;;3.60;99.90;;;;;;5094618;28;20024;-66
2024/01/15 03:34:24;;;;;;;5.82;1.25;;;3.60;99.90;;;;;;5092979;28;20040;-66
2024/01/15 03:36:50;;;;;;;6.00;1.80;;;3.70;99.90;;;;;;5094369;28;20131;-66
2024/01/15 03:39:15;;;;;;;10.35;1.50;;;3.70;99.90;;;;;;5093480;28;20036;-67
2024/01/15 03:41:41;;;;;;;7.03;2.15;;;3.70;99.90;;;;;;5092723;28;20443;-66
2024/01/15 03:44:07;;;;;;;9.13;1.63;;;3.60;99.90;;;;;;5093484;28;20142;-66
2024/01/15 03:46:32;;;;;;;9.68;2.03;;;3.60;99.90;;;;;;5093416;28;20040;-66
2024/01/15 03:48:58;;;;;;;10.85;2.65;;;3.60;99.90;;;;;;5093824;28;20473;-66
2024/01/15 03:51:24;;;;;;;14.48;2.92;;;3.60;99.90;;;;;;5092932;28;20036;-66
2024/01/15 03:53:50;;;;;;;13.52;3.42;;;3.60;99.90;;;;;;5094527;28;20442;-65
2024/01/15 03:56:15;;;;;;;11.63;2.65;;;3.50;99.90;;;;;;5091483;28;20052;-65
2024/01/15 03:58:41;;;;;;;10.75;1.98;;;3.40;99.90;;;;;;5092728;28;20181;-65
2024/01/15 04:01:10;;;;;;;15.90;1.85;;;3.40;99.90;;;;;;5076570;28;20032;-65
2024/01/15 04:03:36;;;;;;;5.25;1.10;;;3.30;99.90;;;;;;5093556;28;20043;-65
2024/01/15 04:06:02;;;;;;;3.78;0.60;;;3.20;99.90;;;;;;5093287;28;20044;-66
2024/01/15 04:08:28;;;;;;;4.97;0.98;;;3.10;99.90;;;;;;5092749;28;20047;-65
2024/01/15 04:10:54;;;;;;;2.72;1.05;;;3.00;99.90;;;;;;5109070;28;20037;-65
2024/01/15 04:13:20;;;;;;;5.55;0.98;;;2.90;99.90;;;;;;5094204;28;20123;-66
2024/01/15 04:15:46;;;;;;;4.57;1.13;;;2.80;99.90;;;;;;5109770;28;20130;-65
2024/01/15 04:18:11;;;;;;;3.30;1.33;;;2.70;99.90;;;;;;5093367;28;20049;-65
2024/01/15 04:20:38;;;;;;;4.00;1.17;;;2.60;99.90;;;;;;5092579;28;20477;-66
2024/01/15 04:23:04;;;;;;;9.50;1.35;;;2.50;99.90;;;;;;5092063;28;20071;-65
2024/01/15 04:25:30;;;;;;;9.07;1.88;;;2.40;99.90;;;;;;5092521;28;20136;-66
2024/01/15 04:27:55;;;;;;;3.97;1.30;;;2.50;99.90;;;;;;5092273;28;20044;-66
2024/01/15 04:30:21;;;;;;;10.80;2.00;;;2.40;99.90;;;;;;5092028;28;20047;-66
2024/01/15 04:32:46;;;;;;;5.88;2.42;;;2.40;99.90;;;;;;5092493;28;20543;-66
2024/01/15 04:35:12;;;;;;;9.32;1.77;;;2.40;99.90;;;;;;5092761;28;20431;-66
2024/01/15 04:37:39;;;;;;;10.10;1.90;;;2.30;99.90;;;;;;5091515;28;20036;-66
2024/01/15 04:40:06;;;;;;;10.70;2.03;;;2.30;99.90;;;;;;5093983;28;20032;-66
2024/01/15 04:42:31;;;;;;;8.35;1.90;;;2.20;99.90;;;;;;5091905;28;20051;-66
2024/01/15 04:44:57;;;;;;;10.32;2.95;;;2.20;99.90;;;;;;5092058;28;20393;-66
2024/01/15 04:47:23;;;;;;;7.18;1.77;;;2.30;99.90;;;;;;5092239;28;20516;-66
2024/01/15 04:49:49;;;;;;;11.48;2.10;;;2.30;99.90;;;;;;5092053;28;20397;-65
2024/01/15 04:52:15;;;;;;;8.00;3.72;;;2.40;99.90;;;;;;5090912;28;20047;-66
2024/01/15 04:54:40;;;;;;;8.27;2.33;;;2.40;99.90;;;;;;5091949;28;20040;-66
2024/01/15 04:57:06;;;;;;;6.82;2.10;;;2.50;99.90;;;;;;5108546;28;20044;-66
2024/01/15 04:59:32;;;;;;;8.15;2.85;;;2.50;99.90;;;;;;5090889;28;20404;-66
2024/01/15 05:01:57;;;;;;;10.60;1.98;;;2.70;99.90;;;;;;5075322;28;20111;-65
2024/01/15 05:04:24;;;;;;;11.30;2.85;;;2.80;99.90;;;;;;5091823;28;20075;-66
2024/01/15 05:06:50;;;;;;;8.40;2.40;;;2.80;99.90;;;;;;5090986;28;20056;-66
2024/01/15 05:09:17;;;;;;;12.85;2.65;;;3.00;99.90;;;;;;5091489;28;20044;-66
2024/01/15 05:11:43;;;;;;;10.52;2.53;;;3.10;99.90;;;;;;5091769;28;20107;-65
2024/01/15 05:14:09;;;;;;;23.60;3.47;;;3.10;99.90;;;;;;5091001;28;20129;-65
2024/01/15 05:16:34;;;;;;;9.27;2.88;;;3.10;99.90;;;;;;5091540;28;20400;-65
2024/01/15 05:19:00;;;;;;;10.10;2.92;;;3.00;99.90;;;;;;5091798;28;20036;-65
2024/01/15 05:21:26;;;;;;;9.85;2.38;;;3.10;99.90;;;;;;5090829;28;20036;-65
2024/01/15 05:23:51;;;;;;;10.88;2.65;;;3.00;99.90;;;;;;5092674;28;20044;-65
2024/01/15 05:26:17;;;;;;;13.18;2.38;;;3.00;99.90;;;;;;5091738;28;20036;-65
2024/01/15 05:28:43;;;;;;;15.18;4.22;;;2.90;99.90;;;;;;5091670;28;20040;-65
2024/01/15 05:31:09;;;;;;;12.02;3.03;;;2.80;99.90;;;;;;5091559;28;20500;-65
2024/01/15 05:33:34;;;;;;;15.30;2.85;;;2.70;99.90;;;;;;5090594;28;20488;-65
2024/01/15 05:36:00;;;;;;;11.30;3.10;;;2.70;99.90;;;;;;5091922;28;20040;-65
2024/01/15 05:38:27;;;;;;;18.65;3.58;;;2.70;99.90;;;;;;5091218;28;20485;-65
2024/01/15 05:40:53;;;;;;;12.40;2.58;;;2.60;99.90;;;;;;5071382;28;20048;-66
2024/01/15 05:43:19;;;;;;;13.95;3.60;;;2.60;99.90;;;;;;5071374;28;20091;-65
2024/01/15 05:45:45;;;;;;;17.15;3.40;;;2.60;99.90;;;;;;5070987;28;20496;-65
2024/01/15 05:48:11;;;;;;;12.48;3.25;;;2.50;99.90;;;;;;5070983;28;20040;-65
2024/01/15 05:50:36;;;;;;;16.70;3.25;;;2.40;99.90;;;;;;5077534;28;20040;-65
2024/01/15 05:53:02;;;;;;;13.73;3.63;;;2.40;99.90;;;;;;5091336;28;20044;-65
2024/01/15 05:55:28;;;;;;;9.05;2.90;;;2.50;99.90;;;;;;5106783;28;20516;-65
2024/01/15 05:57:54;;;;;;;8.52;2.10;;;2.50;99.90;;;;;;5091045;28;20105;-65
2024/01/15 06:00:19;;;;;;;9.95;2.17;;;2.50;99.90;;;;;;5091078;28;20044;-65
2024/01/15 06:02:45;;;;;;;9.60;2.58;;;2.40;99.90;;;;;;5090149;28;20079;-65
2024/01/15 06:05:11;;;;;;;21.92;3.13;;;2.40;99.90;;;;;;5092239;28;20122;-65
2024/01/15 06:07:36;;;;;;;9.82;2.60;;;2.40;99.90;;;;;;5091307;28;20392;-65
2024/01/15 06:10:04;;;;;;;6.97;2.28;;;2.50;99.90;;;;;;5090386;28;20489;-65
2024/01/15 06:12:30;;;;;;;9.57;2.67;;;2.60;99.90;;;;;;5090498;28;20074;-66
2024/01/15 06:14:56;;;;;;;9.20;1.65;;;2.80;99.90;;;;;;5090782;28;20042;-66
2024/01/15 06:17:22;;;;;;;4.45;1.40;;;2.80;99.90;;;;;;5089435;28;20052;-65
2024/01/15 06:19:47;;;;;;;7.72;1.88;;;2.70;99.90;;;;;;5090171;28;20111;-65
2024/01/15 06:22:13;;;;;;;11.45;2.17;;;2.60;99.90;;;;;;5091489;28;20040;-65
2024/01/15 06:24:38;;;;;;;6.53;2.90;;;2.60;99.90;;;;;;5069678;28;20041;-65
2024/01/15 06:27:04;;;;;;;7.57;1.92;;;2.50;99.90;;;;;;5070793;28;20048;-65
2024/01/15 06:29:30;;;;;;;6.03;1.70;;;2.50;99.90;;;;;;5071835;28;20051;-65
2024/01/15 06:31:56;;;;;;;6.47;1.42;;;2.50;99.90;;;;;;5090851;28;20055;-65
2024/01/15 06:34:21;;;;;;;5.22;1.00;;;2.40;99.90;;;;;;5092026;28;20048;-65
2024/01/15 06:36:47;;;;;;;4.47;0.90;;;2.40;99.90;;;;;;5091163;28;20040;-65
2024/01/15 06:39:12;;;;;;;7.20;1.20;;;2.30;99.90;;;;;;5107180;28;20384;-65
2024/01/15 06:41:43;;;;;;;6.53;1.30;;;2.30;99.90;;;;;;5090556;28;20039;-65
2024/01/15 06:44:10;;;;;;;5.95;1.63;;;2.30;99.90;;;;;;5088943;28;20485;-65
2024/01/15 06:46:36;;;;;;;5.30;1.08;;;2.30;99.90;;;;;;5090683;28;20044;-65
2024/01/15 06:49:01;;;;;;;10.18;1.77;;;2.30;99.90;;;;;;5092635;28;20508;-64
2024/01/15 06:51:27;;;;;;;7.80;1.92;;;2.30;99.90;;;;;;5089596;28;20051;-65
2024/01/15 06:53:53;;;;;;;9.13;1.73;;;2.30;99.90;;;;;;5091804;28;20091;-65
2024/01/15 06:56:18;;;;;;;9.35;1.70;;;2.30;99.90;;;;;;5090964;28;20052;-65
2024/01/15 06:58:44;;;;;;;6.05;1.67;;;2.30;99.90;;;;;;5072730;28;20504;-62
2024/01/15 07:01:10;;;;;;;9.50;1.77;;;2.30;99.90;;;;;;5089837;28;20040;-62
2024/01/15 07:03:35;;;;;;;7.93;2.20;;;2.20;99.90;;;;;;5090229;28;20072;-62
2024/01/15 07:06:01;;;;;;;6.53;1.85;;;2.20;99.90;;;;;;5091027;28;20032;-62
2024/01/15 07:08:27;;;;;;;7.20;2.10;;;2.20;99.90;;;;;;5094110;28;20512;-62
2024/01/15 07:10:52;;;;;;;10.65;2.55;;;2.20;99.90;;;;;;5071581;28;20048;-62
2024/01/15 07:13:18;;;;;;;10.68;2.22;;;2.20;99.90;;;;;;5088147;28;20451;-62
2024/01/15 07:15:44;;;;;;;10.55;2.28;;;2.20;99.90;;;;;;5088462;28;20062;-62
2024/01/15 07:18:09;;;;;;;9.65;1.77;;;2.30;99.90;;;;;;5069636;28;20537;-62
2024/01/15 07:20:35;;;;;;;8.07;2.05;;;2.30;99.90;;;;;;5086962;28;20040;-62
2024/01/15 07:23:01;;;;;;;10.35;2.13;;;2.30;99.90;;;;;;5086987;28;20036;-61
2024/01/15 07:25:27;;;;;;;3.67;1.30;;;2.30;99.90;;;;;;5088184;28;20035;-62
2024/01/15 07:27:54;;;;;;;5.35;0.90;;;2.30;99.90;;;;;;5084268;28;20121;-61
2024/01/15 07:30:21;;;;;;;7.20;1.13;;;2.20;99.90;;;;;;5086576;28;20040;-61
2024/01/15 07:32:47;;;;;;;5.43;1.60;;;2.10;99.90;;;;;;5088854;28;20052;-61
2024/01/15 07:35:15;;;;;;;13.10;6.00;;;2.10;99.90;;;;;;5074208;28;20048;-61
2024/01/15 07:37:41;;;;;;;7.50;3.00;;;2.20;99.90;;;;;;5091237;28;20079;-62
2024/01/15 07:40:08;;;;;;;6.45;1.63;;;2.10;99.90;;;;;;5092655;28;20102;-61
2024/01/15 07:42:34;;;;;;;10.85;4.60;;;2.10;99.90;;;;;;5091268;28;20040;-62
2024/01/15 07:45:00;;;;;;;4.22;1.52;;;2.10;99.90;;;;;;5072995;28;20140;-62
2024/01/15 07:47:27;;;;;;;7.80;2.97;;;2.00;99.90;;;;;;5087162;28;20043;-62
2024/01/15 07:49:53;;;;;;;5.40;1.98;;;2.00;99.90;;;;;;5091877;28;20044;-62
2024/01/15 07:52:19;;;;;;;9.50;2.70;;;2.00;99.90;;;;;;5076791;28;20044;-61
2024/01/15 07:54:45;;;;;;;14.85;5.97;;;2.00;99.90;;;;;;5089676;28;20111;-62
2024/01/15 07:57:11;;;;;;;31.42;19.30;;;2.00;99.90;;;;;;5090054;28;20649;-61
2024/01/15 07:59:36;;;;;;;36.28;22.52;;;2.00;99.90;;;;;;5106890;28;20043;-62
2024/01/15 08:02:02;;;;;;;78.38;34.30;;;2.00;99.90;;;;;;5109754;28;20507;-62
2024/01/15 08:04:28;;;;;;;90.70;40.17;;;2.00;99.90;;;;;;5097655;28;20542;-62
2024/01/15 08:06:54;;;;;;;27.63;12.55;;;1.90;99.90;;;;;;5090277;28;20518;-62
2024/01/15 08:09:19;;;;;;;116.22;51.45;;;1.90;99.90;;;;;;5089303;28;20155;-62
2024/01/15 08:11:45;;;;;;;238.63;124.55;;;1.90;99.90;;;;;;5090112;28;20050;-62
2024/01/15 08:14:11;;;;;;;95.20;57.13;;;1.90;99.90;;;;;;5089726;28;20039;-62
2024/01/15 08:16:37;;;;;;;20.60;13.43;;;1.90;99.90;;;;;;5089594;28;20044;-62
2024/01/15 08:19:03;;;;;;;8.80;3.78;;;2.00;99.90;;;;;;5090569;28;20565;-62
2024/01/15 08:21:29;;;;;;;7.65;2.97;;;2.00;99.90;;;;;;5091235;28;20028;-62
2024/01/15 08:23:57;;;;;;;8.70;2.88;;;2.20;99.90;;;;;;5088988;28;20500;-62
2024/01/15 08:26:23;;;;;;;7.28;4.40;;;2.20;99.90;;;;;;5089533;28;20115;-62
2024/01/15 08:28:48;;;;;;;7.80;2.75;;;2.20;99.90;;;;;;5088355;28;20627;-62
2024/01/15 08:31:14;;;;;;;14.13;8.48;;;2.10;99.90;;;;;;5089096;28;20384;-62
2024/01/15 08:33:40;;;;;;;6.68;1.80;;;2.10;99.90;;;;;;5090140;28;20048;-62
2024/01/15 08:36:06;;;;;;;5.28;1.60;;;2.00;99.90;;;;;;5089994;28;20412;-62
2024/01/15 08:38:31;;;;;;;5.43;1.95;;;2.00;99.90;;;;;;5089591;28;20578;-62
2024/01/15 08:40:58;;;;;;;5.72;1.40;;;1.90;99.90;;;;;;5090411;28;20094;-62
2024/01/15 08:43:24;;;;;;;7.75;1.90;;;1.90;99.90;;;;;;5072034;28;20040;-62
2024/01/15 08:45:51;;;;;;;6.07;1.83;;;1.90;99.90;;;;;;5089662;28;20435;-62
2024/01/15 08:48:17;;;;;;;5.45;1.52;;;1.90;99.90;;;;;;5090086;28;20052;-62
2024/01/15 08:50:42;;;;;;;6.30;2.08;;;1.90;99.90;;;;;;5089197;28;20052;-62
2024/01/15 08:53:08;;;;;;;8.48;2.30;;;1.90;99.90;;;;;;5088296;28;20036;-62
2024/01/15 08:55:34;;;;;;;11.15;6.03;;;2.00;99.90;;;;;;5088717;28;20048;-62
2024/01/15 08:57:59;;;;;;;11.02;4.85;;;2.00;99.90;;;;;;5088715;28;20127;-62
2024/01/15 09:00:25;;;;;;;7.40;2.08;;;2.00;99.90;;;;;;5089020;28;20062;-63
2024/01/15 09:02:51;;;;;;;7.28;2.47;;;2.10;99.90;;;;;;5089046;28;20425;-62
2024/01/15 09:05:16;;;;;;;8.70;1.70;;;2.10;99.90;;;;;;5087720;28;20039;-62
2024/01/15 09:07:42;;;;;;;17.15;2.60;;;2.20;99.90;;;;;;5093601;28;20062;-62
2024/01/15 09:10:08;;;;;;;7.45;1.98;;;2.30;99.90;;;;;;5109213;28;20134;-62
2024/01/15 09:12:34;;;;;;;12.63;3.08;;;2.30;99.90;;;;;;5102043;28;20040;-62
2024/01/15 09:14:59;;;;;;;10.30;2.20;;;2.40;99.90;;;;;;5089739;28;20087;-62
2024/01/15 09:17:25;;;;;;;9.00;2.80;;;2.40;99.90;;;;;;5088733;28;20772;-62
2024/01/15 09:19:51;;;;;;;8.98;1.88;;;2.30;99.90;;;;;;5088576;28;20040;-62
2024/01/15 09:22:18;;;;;;;6.00;2.00;;;2.40;99.90;;;;;;5089204;28;20036;-62
2024/01/15 09:24:45;;;;;;;6.60;1.73;;;2.30;99.90;;;;;;5089140;28;20051;-62
2024/01/15 09:27:11;;;;;;;7.75;2.35;;;2.40;99.90;;;;;;5087970;28;20043;-62
2024/01/15 09:29:39;;;;;;;8.80;3.55;;;2.40;99.90;;;;;;5086150;28;20047;-62
2024/01/15 09:32:07;;;;;;;6.03;1.30;;;2.50;99.90;;;;;;5088210;28;20040;-62
2024/01/15 09:34:36;;;;;;;8.15;1.83;;;2.50;99.90;;;;;;5091570;28;20404;-62
2024/01/15 09:37:02;;;;;;;6.18;1.80;;;2.50;99.90;;;;;;5088926;28;20048;-62
2024/01/15 09:39:28;;;;;;;11.48;2.83;;;2.50;99.90;;;;;;5090367;28;20066;-63
2024/01/15 09:41:55;;;;;;;8.32;1.55;;;2.50;99.90;;;;;;5108118;28;20077;-62
2024/01/15 09:44:21;;;;;;;7.82;3.42;;;2.60;99.90;;;;;;5091511;28;20075;-62
2024/01/15 09:46:50;;;;;;;7.65;1.98;;;2.70;99.90;;;;;;5090400;28;20043;-63
2024/01/15 09:49:16;;;;;;;6.88;2.97;;;2.80;99.90;;;;;;5091427;28;20047;-62
2024/01/15 09:51:43;;;;;;;12.70;4.20;;;2.90;99.90;;;;;;5091255;28;20044;-63
2024/01/15 09:54:09;;;;;;;10.63;2.85;;;3.00;99.90;;;;;;5089616;28;20082;-62
2024/01/15 09:56:36;;;;;;;11.27;4.78;;;3.00;99.90;;;;;;5107805;28;20063;-62
2024/01/15 09:59:04;;;;;;;7.55;2.00;;;3.10;99.90;;;;;;5074841;28;20043;-62
2024/01/15 10:01:31;;;;;;;9.00;5.20;;;3.10;99.90;;;;;;5090243;28;20036;-62
2024/01/15 10:03:58;;;;;;;21.60;12.02;;;3.10;99.90;;;;;;5091332;28;20153;-62
2024/01/15 10:06:30;;;;;;;23.13;10.98;;;3.10;99.90;;;;;;5074178;28;20083;-62
2024/01/15 10:08:58;;;;;;;17.80;5.63;;;3.10;99.90;;;;;;5090448;28;20040;-62
2024/01/15 10:11:24;;;;;;;22.05;11.52;;;3.20;99.90;;;;;;5096890;28;20040;-62
2024/01/15 10:13:53;;;;;;;14.60;6.60;;;3.00;99.90;;;;;;5091125;28;20051;-62
2024/01/15 10:16:22;;;;;;;25.17;13.13;;;2.90;99.90;;;;;;5090204;28;20036;-63
2024/01/15 10:18:51;;;;;;;25.00;13.48;;;2.80;99.90;;;;;;5073506;28;20040;-62
2024/01/15 10:21:16;;;;;;;24.30;16.73;;;2.70;99.90;;;;;;5090638;28;20032;-62
2024/01/15 10:23:42;;;;;;;131.77;88.70;;;2.70;99.90;;;;;;5072886;28;20039;-62
2024/01/15 10:26:08;;;;;;;19.08;8.90;;;2.70;99.90;;;;;;5091052;28;20036;-62
2024/01/15 10:28:34;;;;;;;15.45;8.65;;;2.80;99.90;;;;;;5090044;28;20039;-62
2024/01/15 10:31:02;;;;;;;8.07;2.97;;;2.80;99.90;;;;;;5090795;28;20456;-63
2024/01/15 10:33:27;;;;;;;7.45;1.75;;;2.90;99.90;;;;;;5074530;28;20756;-62
2024/01/15 10:35:57;;;;;;;6.78;1.38;;;2.90;99.90;;;;;;5089819;28;20047;-61
2024/01/15 10:38:24;;;;;;;9.00;1.50;;;2.80;99.90;;;;;;5089790;28;20040;-63
2024/01/15 10:40:55;;;;;;;4.88;1.50;;;2.80;99.90;;;;;;5084688;28;20048;-62
2024/01/15 10:43:21;;;;;;;6.07;1.90;;;2.80;99.90;;;;;;5086527;28;20109;-62
2024/01/15 10:45:48;;;;;;;7.63;3.22;;;2.70;99.90;;;;;;5087444;28;20047;-61
2024/01/15 10:48:17;;;;;;;6.95;1.60;;;2.70;99.90;;;;;;5086988;28;20072;-61
2024/01/15 10:50:45;;;;;;;10.40;4.50;;;2.70;99.90;;;;;;5086778;28;20066;-62
2024/01/15 10:53:15;;;;;;;6.82;2.28;;;2.80;99.90;;;;;;5087053;28;20055;-61
2024/01/15 10:55:42;;;;;;;6.10;2.03;;;2.90;99.90;;;;;;5087084;28;20066;-62
2024/01/15 10:58:08;;;;;;;4.90;2.10;;;2.90;99.90;;;;;;5069421;28;20139;-62
2024/01/15 11:00:38;;;;;;;6.70;3.05;;;2.90;99.90;;;;;;5087583;28;20043;-63
2024/01/15 11:03:08;;;;;;;5.40;1.20;;;2.90;99.90;;;;;;5071079;28;20042;-62
2024/01/15 11:05:42;;;;;;;3.33;0.70;;;3.00;99.90;;;;;;5086983;28;20553;-62
2024/01/15 11:08:09;;;;;;;3.33;0.90;;;2.90;99.90;;;;;;5091361;28;20052;-62
2024/01/15 11:10:51;;;;;;;4.35;0.80;;;2.80;99.90;;;;;;5090417;28;20393;-62
2024/01/15 11:13:40;;;;;;;3.58;1.10;;;2.80;99.90;;;;;;5088279;28;20915;-62
2024/01/15 11:16:08;;;;;;;4.43;0.90;;;2.90;99.90;;;;;;5073841;28;20079;-62
2024/01/15 11:18:40;;;;;;;3.03;0.68;;;2.90;99.90;;;;;;5072937;28;20051;-62
2024/01/15 11:21:17;;;;;;;3.03;1.38;;;2.90;99.90;;;;;;5073158;28;20043;-62
2024/01/15 11:23:46;;;;;;;9.65;1.23;;;2.80;99.90;;;;;;5089718;28;20036;-62
2024/01/15 11:26:31;;;;;;;5.65;1.50;;;2.70;99.90;;;;;;5072868;28;20036;-63
2024/01/15 11:29:00;;;;;;;3.58;1.15;;;2.50;99.90;;;;;;5091019;28;20044;-62
2024/01/15 11:31:28;;;;;;;5.63;1.20;;;2.20;99.90;;;;;;5088182;28;20024;-62
2024/01/15 11:33:55;;;;;;;5.28;1.17;;;2.10;99.90;;;;;;5089467;28;20059;-62
2024/01/15 11:36:21;;;;;;;6.65;2.13;;;2.00;99.90;;;;;;5089910;28;20040;-62
2024/01/15 11:38:47;;;;;;;6.05;1.90;;;2.10;99.90;;;;;;5089433;28;20077;-62
2024/01/15 11:41:16;;;;;;;3.67;1.42;;;2.10;99.90;;;;;;5072523;28;20040;-62
2024/01/15 11:43:42;;;;;;;6.85;1.38;;;2.30;99.90;;;;;;5089726;28;20051;-62
2024/01/15 11:46:15;;;;;;;9.02;1.40;;;2.40;99.90;;;;;;5089799;28;20047;-62
2024/01/15 11:48:47;;;;;;;7.68;1.45;;;2.50;99.90;;;;;;5073051;28;20032;-62
2024/01/15 11:51:15;;;;;;;6.78;1.67;;;2.60;99.90;;;;;;5072941;28;20039;-62
2024/01/15 11:53:46;;;;;;;5.15;1.30;;;2.60;99.90;;;;;;5089253;28;20044;-62
2024/01/15 11:56:16;;;;;;;7.55;1.45;;;2.70;99.90;;;;;;5089780;28;20543;-62
2024/01/15 11:58:43;;;;;;;5.55;1.98;;;2.70;99.90;;;;;;5089438;28;20059;-62
2024/01/15 12:01:10;;;;;;;9.32;2.30;;;2.70;99.90;;;;;;5072056;28;20044;-62
2024/01/15 12:03:36;;;;;;;9.38;4.22;;;2.70;99.90;;;;;;5089097;28;20119;-63
2024/01/15 12:06:02;;;;;;;15.98;4.85;;;2.80;99.90;;;;;;5089714;28;20468;-62
2024/01/15 12:08:27;;;;;;;8.73;3.60;;;2.80;99.90;;;;;;5088031;28;20472;-63
2024/01/15 12:10:53;;;;;;;9.07;3.33;;;2.80;99.90;;;;;;5089741;28;20078;-62
2024/01/15 12:13:22;;;;;;;9.35;2.97;;;2.90;99.90;;;;;;5106105;28;20518;-63
2024/01/15 12:15:48;;;;;;;9.45;2.92;;;3.00;99.90;;;;;;5070215;28;20051;-62
2024/01/15 12:18:16;;;;;;;13.13;3.92;;;3.00;99.90;;;;;;5071380;28;20085;-62
2024/01/15 12:20:43;;;;;;;9.05;5.53;;;3.10;99.90;;;;;;5089951;28;20077;-62
2024/01/15 12:23:10;;;;;;;9.68;3.80;;;3.10;99.90;;;;;;5089331;28;20036;-62
2024/01/15 12:25:37;;;;;;;8.05;2.95;;;3.00;99.90;;;;;;5072569;28;20091;-62
2024/01/15 12:28:03;;;;;;;12.80;2.55;;;2.80;99.90;;;;;;5089013;28;20484;-62
2024/01/15 12:30:32;;;;;;;6.45;2.33;;;2.50;99.90;;;;;;5108139;28;20046;-62
2024/01/15 12:32:58;;;;;;;6.15;1.90;;;2.40;99.90;;;;;;5095554;28;20135;-62
2024/01/15 12:35:27;;;;;;;8.68;2.58;;;2.30;99.90;;;;;;5089183;28;20131;-62
2024/01/15 12:37:54;;;;;;;7.03;1.67;;;2.40;99.90;;;;;;5089904;28;20040;-62
2024/01/15 12:40:21;;;;;;;14.93;5.25;;;2.50;99.90;;;;;;5089707;28;20040;-62
2024/01/15 12:42:46;;;;;;;7.65;2.95;;;2.70;99.90;;;;;;5089715;28;20079;-62
2024/01/15 12:45:13;;;;;;;8.35;1.73;;;2.70;99.90;;;;;;5089855;28;20102;-63
2024/01/15 12:47:40;;;;;;;5.72;2.05;;;2.60;99.90;;;;;;5090034;28;20048;-62
2024/01/15 12:50:08;;;;;;;6.05;1.73;;;2.60;99.90;;;;;;5088642;28;20061;-63